Time;durP1;ratioP1;P1;durP2;ratioP2;P2;SDS_P1;SDS_P2;PMS_P1;PMS_P2;Temp;Humidity;BMP_temperature;BMP_pressure;BME280_temperature;BME280_humidity;BME280_pressure;Samples;Min_cycle;Max_cycle;Signal;HPM_P1;HPM_P2
2022/10/03 00:01:58;;;;;;;6.18;2.30;;;;;;;;;;622894;231;26584;-66
2022/10/03 00:04:30;;;;;;;6.35;2.60;;;;;;;;;;623192;231;26591;-66
2022/10/03 00:06:59;;;;;;;3.97;2.20;;;;;;;;;;623148;231;27192;-66
2022/10/03 00:09:34;;;;;;;6.72;2.65;;;;;;;;;;624777;228;26618;-66
2022/10/03 00:12:23;;;;;;;4.55;2.35;;;;;;;;;;625015;230;26573;-66
2022/10/03 00:14:59;;;;;;;6.57;2.42;;;;;;;;;;620445;230;26640;-66
2022/10/03 00:17:28;;;;;;;7.93;2.50;;;;;;;;;;624207;230;26626;-66
2022/10/03 00:19:59;;;;;;;3.80;2.12;;;;;;;;;;623549;230;26574;-66
2022/10/03 00:22:27;;;;;;;4.87;2.67;;;;;;;;;;623747;230;26822;-67
2022/10/03 00:24:56;;;;;;;4.75;2.40;;;;;;;;;;623992;230;26606;-67
2022/10/03 00:27:28;;;;;;;7.65;2.53;;;;;;;;;;623717;230;26807;-67
2022/10/03 00:29:57;;;;;;;4.93;2.30;;;;;;;;;;623674;230;26623;-66
2022/10/03 00:32:31;;;;;;;5.28;2.33;;;;;;;;;;623799;230;26800;-66
2022/10/03 00:35:11;;;;;;;4.78;2.25;;;;;;;;;;623555;230;26593;-66
2022/10/03 00:37:46;;;;;;;5.40;2.42;;;;;;;;;;623825;230;26557;-66
2022/10/03 00:40:29;;;;;;;7.78;2.47;;;;;;;;;;623891;230;26647;-66
2022/10/03 00:43:03;;;;;;;5.37;2.35;;;;;;;;;;623563;230;26631;-66
2022/10/03 00:45:37;;;;;;;7.45;2.42;;;;;;;;;;623091;226;26602;-66
2022/10/03 00:48:06;;;;;;;5.93;2.45;;;;;;;;;;623007;231;26815;-66
2022/10/03 00:50:49;;;;;;;4.20;2.33;;;;;;;;;;623074;231;26576;-66
2022/10/03 00:53:39;;;;;;;5.50;2.33;;;;;;;;;;622385;231;26593;-66
2022/10/03 00:56:22;;;;;;;4.55;2.17;;;;;;;;;;623315;231;26561;-66
2022/10/03 00:58:51;;;;;;;5.07;2.20;;;;;;;;;;619737;231;26578;-66
2022/10/03 01:01:20;;;;;;;5.07;2.30;;;;;;;;;;623013;231;27184;-65
2022/10/03 01:03:49;;;;;;;13.23;3.10;;;;;;;;;;623638;231;26930;-66
2022/10/03 01:06:19;;;;;;;8.30;2.50;;;;;;;;;;623266;231;26565;-69
2022/10/03 01:08:48;;;;;;;10.55;2.80;;;;;;;;;;623382;231;26556;-69
2022/10/03 01:11:23;;;;;;;8.35;2.83;;;;;;;;;;623044;231;26564;-70
2022/10/03 01:13:54;;;;;;;10.25;2.70;;;;;;;;;;623679;231;26581;-69
2022/10/03 01:16:26;;;;;;;12.27;2.60;;;;;;;;;;623472;231;26572;-69
2022/10/03 01:18:56;;;;;;;9.55;2.95;;;;;;;;;;623039;231;26524;-69
2022/10/03 01:21:29;;;;;;;8.80;2.40;;;;;;;;;;624645;228;26646;-69
2022/10/03 01:23:58;;;;;;;9.07;2.70;;;;;;;;;;624391;230;26578;-67
2022/10/03 01:26:40;;;;;;;10.77;2.58;;;;;;;;;;623547;226;26872;-67
2022/10/03 01:31:49;;;;;;;7.20;2.53;;;;;;;;;;624308;230;26537;-67
2022/10/03 01:34:20;;;;;;;4.45;1.98;;;;;;;;;;624312;225;26607;-66
2022/10/03 01:36:51;;;;;;;8.32;2.58;;;;;;;;;;623989;230;26826;-66
2022/10/03 01:39:37;;;;;;;9.20;2.47;;;;;;;;;;623567;230;26571;-66
2022/10/03 01:42:07;;;;;;;5.30;2.30;;;;;;;;;;619755;230;26603;-66
2022/10/03 01:44:39;;;;;;;8.23;2.15;;;;;;;;;;623813;230;26611;-66
2022/10/03 01:47:08;;;;;;;5.53;2.25;;;;;;;;;;623632;230;26609;-66
2022/10/03 01:49:43;;;;;;;5.55;2.70;;;;;;;;;;623487;230;27090;-67
2022/10/03 01:52:29;;;;;;;6.32;2.67;;;;;;;;;;623634;230;26587;-66
2022/10/03 01:55:02;;;;;;;5.25;2.25;;;;;;;;;;623549;230;26632;-66
2022/10/03 01:57:34;;;;;;;4.95;1.90;;;;;;;;;;623309;231;26568;-66
2022/10/03 02:00:06;;;;;;;5.15;2.40;;;;;;;;;;623316;231;26810;-66
2022/10/03 02:02:42;;;;;;;7.55;2.40;;;;;;;;;;623570;231;26585;-66
2022/10/03 02:05:11;;;;;;;4.95;1.95;;;;;;;;;;623372;231;26601;-67
2022/10/03 02:07:40;;;;;;;4.60;2.17;;;;;;;;;;623465;231;26543;-67
2022/10/03 02:10:17;;;;;;;5.62;2.40;;;;;;;;;;623400;231;27261;-67
2022/10/03 02:12:45;;;;;;;7.43;2.20;;;;;;;;;;623621;231;26784;-67
2022/10/03 02:15:16;;;;;;;5.05;2.10;;;;;;;;;;623401;231;26591;-67
2022/10/03 02:17:51;;;;;;;4.65;2.00;;;;;;;;;;623479;231;26536;-66
2022/10/03 02:20:33;;;;;;;7.90;2.30;;;;;;;;;;623490;231;26588;-66
2022/10/03 02:23:02;;;;;;;6.03;2.05;;;;;;;;;;623304;231;26576;-66
2022/10/03 02:25:45;;;;;;;6.25;2.12;;;;;;;;;;622010;231;26548;-66
2022/10/03 02:28:29;;;;;;;4.75;2.12;;;;;;;;;;623098;231;26572;-66
2022/10/03 02:31:05;;;;;;;3.17;1.98;;;;;;;;;;622447;228;26587;-66
2022/10/03 02:33:39;;;;;;;4.95;2.17;;;;;;;;;;625159;230;26650;-66
2022/10/03 02:36:08;;;;;;;5.70;2.28;;;;;;;;;;624724;230;26848;-66
2022/10/03 02:38:40;;;;;;;4.10;1.62;;;;;;;;;;623719;230;26623;-66
2022/10/03 02:41:20;;;;;;;4.20;2.10;;;;;;;;;;623361;230;26624;-66
2022/10/03 02:43:55;;;;;;;3.87;2.12;;;;;;;;;;623580;230;27026;-67
2022/10/03 02:46:34;;;;;;;3.95;1.80;;;;;;;;;;622906;230;26614;-66
2022/10/03 02:49:13;;;;;;;3.75;1.67;;;;;;;;;;623827;230;26565;-66
2022/10/03 02:51:46;;;;;;;4.32;1.80;;;;;;;;;;623344;230;26561;-66
2022/10/03 02:54:31;;;;;;;4.62;2.40;;;;;;;;;;623698;230;26582;-66
2022/10/03 02:57:10;;;;;;;4.82;2.00;;;;;;;;;;614377;230;27341;-66
2022/10/03 02:59:41;;;;;;;4.65;1.92;;;;;;;;;;623480;230;26577;-66
2022/10/03 03:02:16;;;;;;;6.30;2.10;;;;;;;;;;623248;230;26615;-66
2022/10/03 03:04:48;;;;;;;4.25;1.77;;;;;;;;;;622783;230;26895;-67
2022/10/03 03:07:25;;;;;;;3.30;1.60;;;;;;;;;;623083;230;26623;-67
2022/10/03 03:09:57;;;;;;;3.87;1.98;;;;;;;;;;623616;231;26790;-66
2022/10/03 03:12:28;;;;;;;4.50;2.12;;;;;;;;;;622575;231;26560;-66
2022/10/03 03:14:57;;;;;;;2.75;1.60;;;;;;;;;;623350;231;26783;-66
2022/10/03 03:17:29;;;;;;;4.12;1.92;;;;;;;;;;623063;231;26544;-66
2022/10/03 03:20:01;;;;;;;4.85;1.77;;;;;;;;;;623244;231;26564;-66
2022/10/03 03:22:34;;;;;;;4.50;2.05;;;;;;;;;;623288;231;26560;-66
2022/10/03 03:25:20;;;;;;;5.30;1.98;;;;;;;;;;623369;231;26580;-66
2022/10/03 03:27:51;;;;;;;3.92;1.77;;;;;;;;;;619626;231;26964;-66
2022/10/03 03:30:20;;;;;;;4.75;1.83;;;;;;;;;;623160;231;26572;-66
2022/10/03 03:32:50;;;;;;;2.50;1.52;;;;;;;;;;623494;231;26532;-66
2022/10/03 03:35:24;;;;;;;3.72;1.92;;;;;;;;;;623013;231;26835;-66
2022/10/03 03:37:56;;;;;;;2.58;1.73;;;;;;;;;;623478;231;26563;-66
2022/10/03 03:40:28;;;;;;;2.67;1.58;;;;;;;;;;622857;231;26552;-66
2022/10/03 03:43:10;;;;;;;4.35;1.85;;;;;;;;;;623669;228;26558;-66
2022/10/03 03:45:39;;;;;;;5.22;1.90;;;;;;;;;;615283;230;26594;-66
2022/10/03 03:48:11;;;;;;;4.28;1.90;;;;;;;;;;624409;230;27364;-66
2022/10/03 03:50:44;;;;;;;3.60;2.03;;;;;;;;;;624030;230;26856;-66
2022/10/03 03:53:14;;;;;;;5.18;2.10;;;;;;;;;;624370;230;26857;-66
2022/10/03 03:55:49;;;;;;;5.15;1.92;;;;;;;;;;623451;230;26578;-67
2022/10/03 03:58:24;;;;;;;3.00;1.52;;;;;;;;;;624369;230;26591;-66
2022/10/03 04:00:54;;;;;;;2.40;1.70;;;;;;;;;;623579;230;26955;-66
2022/10/03 04:03:26;;;;;;;4.90;1.95;;;;;;;;;;623324;226;26638;-67
2022/10/03 04:06:08;;;;;;;3.15;2.03;;;;;;;;;;623985;230;26830;-66
2022/10/03 04:08:42;;;;;;;3.70;1.92;;;;;;;;;;614676;230;26816;-67
2022/10/03 04:11:26;;;;;;;5.05;1.83;;;;;;;;;;624411;225;26605;-66
2022/10/03 04:13:58;;;;;;;3.35;1.83;;;;;;;;;;624176;230;26637;-66
2022/10/03 04:19:07;;;;;;;2.62;1.67;;;;;;;;;;623979;230;26627;-67
2022/10/03 04:21:37;;;;;;;2.33;1.45;;;;;;;;;;623257;231;26758;-67
2022/10/03 04:24:26;;;;;;;4.43;1.92;;;;;;;;;;623607;231;26588;-67
2022/10/03 04:26:58;;;;;;;5.90;1.70;;;;;;;;;;619638;231;26629;-66
2022/10/03 04:29:40;;;;;;;4.35;2.05;;;;;;;;;;623178;231;26616;-66
2022/10/03 04:32:09;;;;;;;3.67;1.48;;;;;;;;;;614260;231;26629;-66
2022/10/03 04:34:44;;;;;;;2.72;1.80;;;;;;;;;;623338;231;26605;-66
2022/10/03 04:37:12;;;;;;;4.45;1.70;;;;;;;;;;623226;231;26568;-66
2022/10/03 04:39:52;;;;;;;3.58;1.70;;;;;;;;;;623330;231;26553;-66
2022/10/03 04:42:25;;;;;;;5.22;2.12;;;;;;;;;;623715;231;26572;-65
2022/10/03 04:44:55;;;;;;;3.50;1.73;;;;;;;;;;623345;231;26592;-65
2022/10/03 04:47:24;;;;;;;4.03;1.62;;;;;;;;;;623151;231;26840;-65
2022/10/03 04:49:55;;;;;;;4.15;1.85;;;;;;;;;;623542;231;26894;-65
2022/10/03 04:52:27;;;;;;;4.95;1.62;;;;;;;;;;623599;231;26794;-65
2022/10/03 04:54:56;;;;;;;2.28;1.60;;;;;;;;;;624309;228;26595;-65
2022/10/03 04:57:27;;;;;;;4.65;1.70;;;;;;;;;;624788;230;26571;-65
2022/10/03 05:00:00;;;;;;;2.25;1.60;;;;;;;;;;624563;230;26858;-66
2022/10/03 05:02:33;;;;;;;4.07;1.80;;;;;;;;;;624288;230;26851;-66
2022/10/03 05:05:04;;;;;;;4.43;1.85;;;;;;;;;;623525;230;26828;-66
2022/10/03 05:07:40;;;;;;;1.87;1.50;;;;;;;;;;623559;230;26646;-66
2022/10/03 05:10:27;;;;;;;2.72;1.48;;;;;;;;;;623727;230;26573;-66
2022/10/03 05:13:10;;;;;;;3.15;1.60;;;;;;;;;;622479;230;26559;-66
2022/10/03 05:15:47;;;;;;;6.32;1.83;;;;;;;;;;621194;231;26558;-66
2022/10/03 05:18:17;;;;;;;3.83;1.58;;;;;;;;;;621269;231;26555;-66
2022/10/03 05:20:46;;;;;;;4.78;1.80;;;;;;;;;;621087;231;26756;-66
2022/10/03 05:23:19;;;;;;;3.75;1.58;;;;;;;;;;621283;231;26615;-66
2022/10/03 05:25:53;;;;;;;2.40;1.85;;;;;;;;;;621086;231;26570;-66
2022/10/03 05:28:25;;;;;;;4.35;1.75;;;;;;;;;;621214;231;26901;-66
2022/10/03 05:30:53;;;;;;;2.85;1.77;;;;;;;;;;620631;231;26551;-66
2022/10/03 05:33:22;;;;;;;4.80;1.87;;;;;;;;;;620880;231;26817;-66
2022/10/03 05:36:07;;;;;;;3.50;1.58;;;;;;;;;;620729;231;26624;-66
2022/10/03 05:38:42;;;;;;;5.43;1.90;;;;;;;;;;614034;231;26608;-66
2022/10/03 05:41:11;;;;;;;2.70;1.58;;;;;;;;;;621548;231;26597;-66
2022/10/03 05:43:40;;;;;;;2.92;1.70;;;;;;;;;;620954;231;26622;-66
2022/10/03 05:46:15;;;;;;;2.28;1.62;;;;;;;;;;621129;231;26570;-66
2022/10/03 05:48:44;;;;;;;2.75;1.55;;;;;;;;;;621169;231;26597;-66
2022/10/03 05:51:37;;;;;;;5.12;2.25;;;;;;;;;;621315;231;26836;-66
2022/10/03 05:54:03;;;;;;;4.40;1.80;;;;;;;;;;617935;231;26923;-66
2022/10/03 05:56:34;;;;;;;2.22;1.60;;;;;;;;;;620932;231;26581;-66
2022/10/03 05:59:19;;;;;;;5.87;1.70;;;;;;;;;;620964;231;26596;-66
2022/10/03 06:01:51;;;;;;;5.00;1.60;;;;;;;;;;620446;231;26601;-67
2022/10/03 06:04:22;;;;;;;4.30;1.83;;;;;;;;;;621016;231;26613;-67
2022/10/03 06:06:56;;;;;;;4.35;1.70;;;;;;;;;;621824;229;26586;-67
2022/10/03 06:09:40;;;;;;;4.85;1.70;;;;;;;;;;622198;231;26804;-67
2022/10/03 06:12:13;;;;;;;3.78;1.73;;;;;;;;;;621405;231;26872;-66
2022/10/03 06:14:59;;;;;;;3.87;1.62;;;;;;;;;;621675;231;26589;-66
2022/10/03 06:17:27;;;;;;;4.60;1.90;;;;;;;;;;621278;231;26615;-66
2022/10/03 06:19:58;;;;;;;2.40;1.60;;;;;;;;;;621156;231;26804;-66
2022/10/03 06:22:30;;;;;;;2.25;1.40;;;;;;;;;;620751;231;26849;-66
2022/10/03 06:25:16;;;;;;;3.97;1.70;;;;;;;;;;620900;231;26571;-67
2022/10/03 06:27:51;;;;;;;4.18;1.50;;;;;;;;;;620239;231;26550;-67
2022/10/03 06:30:22;;;;;;;2.92;1.73;;;;;;;;;;621372;231;26598;-67
2022/10/03 06:33:09;;;;;;;2.83;1.60;;;;;;;;;;621113;231;26617;-67
2022/10/03 06:35:59;;;;;;;2.08;1.50;;;;;;;;;;613846;231;26618;-67
2022/10/03 06:38:30;;;;;;;3.40;1.62;;;;;;;;;;613817;231;26610;-68
2022/10/03 06:41:05;;;;;;;1.60;1.20;;;;;;;;;;620494;231;26902;-67
2022/10/03 06:43:51;;;;;;;3.12;1.55;;;;;;;;;;621084;231;26911;-67
2022/10/03 06:46:19;;;;;;;3.25;1.62;;;;;;;;;;617785;231;26590;-67
2022/10/03 06:48:54;;;;;;;2.97;1.77;;;;;;;;;;620088;231;26623;-67
2022/10/03 06:51:24;;;;;;;1.85;1.52;;;;;;;;;;620406;231;26640;-67
2022/10/03 06:53:58;;;;;;;4.05;1.62;;;;;;;;;;620342;231;26857;-67
2022/10/03 06:56:30;;;;;;;3.67;1.70;;;;;;;;;;621100;231;26813;-67
2022/10/03 06:58:59;;;;;;;2.83;1.50;;;;;;;;;;620196;231;26898;-67
2022/10/03 07:01:49;;;;;;;5.32;2.08;;;;;;;;;;620403;231;26643;-67
2022/10/03 07:04:23;;;;;;;3.58;1.75;;;;;;;;;;617690;231;26677;-67
2022/10/03 07:06:50;;;;;;;4.82;1.80;;;;;;;;;;620973;231;26891;-67
2022/10/03 07:09:27;;;;;;;3.70;1.70;;;;;;;;;;620531;231;26603;-67
2022/10/03 07:12:00;;;;;;;5.32;2.00;;;;;;;;;;620091;231;26602;-67
2022/10/03 07:14:37;;;;;;;4.05;1.48;;;;;;;;;;620225;231;26681;-67
2022/10/03 07:17:20;;;;;;;2.95;1.70;;;;;;;;;;621329;231;26614;-68
2022/10/03 07:19:49;;;;;;;2.30;1.60;;;;;;;;;;622576;227;26784;-67
2022/10/03 07:22:23;;;;;;;4.07;1.80;;;;;;;;;;622114;231;26529;-67
2022/10/03 07:24:56;;;;;;;5.07;1.92;;;;;;;;;;621889;231;26569;-67
2022/10/03 07:27:31;;;;;;;3.62;1.90;;;;;;;;;;622214;231;26808;-67
2022/10/03 07:30:01;;;;;;;4.55;1.58;;;;;;;;;;622067;231;26566;-67
2022/10/03 07:32:30;;;;;;;4.82;1.80;;;;;;;;;;621957;231;26798;-67
2022/10/03 07:35:05;;;;;;;4.57;1.90;;;;;;;;;;621634;231;26610;-67
2022/10/03 07:40:20;;;;;;;2.37;1.30;;;;;;;;;;621373;231;26551;-67
2022/10/03 07:42:50;;;;;;;2.28;1.50;;;;;;;;;;621365;231;26775;-67
2022/10/03 07:45:21;;;;;;;2.97;1.40;;;;;;;;;;620835;231;26865;-67
2022/10/03 07:48:04;;;;;;;3.55;1.75;;;;;;;;;;620847;231;26766;-67
2022/10/03 07:50:39;;;;;;;1.58;1.10;;;;;;;;;;621066;231;26821;-67
2022/10/03 07:53:11;;;;;;;4.87;1.60;;;;;;;;;;621328;231;26810;-65
